createdAt,value
2022-12-03T00:01:14.108Z,5.64
2022-12-03T00:03:40.945Z,5.65
2022-12-03T00:06:07.766Z,5.65
2022-12-03T00:08:34.349Z,5.65
2022-12-03T00:11:00.907Z,5.64
2022-12-03T00:13:27.422Z,5.66
2022-12-03T00:15:54.046Z,5.66
2022-12-03T00:18:20.675Z,5.65
2022-12-03T00:20:47.253Z,5.66
2022-12-03T00:23:13.790Z,5.69
2022-12-03T00:25:40.403Z,5.66
2022-12-03T00:28:07.698Z,5.69
2022-12-03T00:30:34.332Z,5.69
2022-12-03T00:33:00.874Z,5.71
2022-12-03T00:35:27.410Z,5.68
2022-12-03T00:37:54.772Z,5.70
2022-12-03T00:40:21.404Z,5.70
2022-12-03T00:42:47.940Z,5.71
2022-12-03T00:45:14.478Z,5.71
2022-12-03T00:47:41.022Z,5.72
2022-12-03T00:50:08.526Z,5.72
2022-12-03T00:52:35.052Z,5.72
2022-12-03T00:55:01.678Z,5.71
2022-12-03T00:57:28.283Z,5.71
2022-12-03T00:59:54.820Z,5.72
2022-12-03T01:02:21.624Z,5.73
2022-12-03T01:04:48.387Z,5.73
2022-12-03T01:07:14.968Z,5.73
2022-12-03T01:09:41.504Z,5.74
2022-12-03T01:12:08.113Z,5.72
2022-12-03T01:14:34.917Z,5.73
2022-12-03T01:17:01.485Z,5.73
2022-12-03T01:19:28.185Z,5.73
2022-12-03T01:21:56.212Z,5.72
2022-12-03T01:24:24.712Z,5.74
2022-12-03T01:26:53.075Z,5.74
2022-12-03T01:29:21.060Z,5.74
2022-12-03T01:32:09.246Z,5.72
2022-12-03T01:34:37.588Z,5.71
2022-12-03T01:37:06.296Z,5.71
2022-12-03T01:39:34.720Z,5.70
2022-12-03T01:42:03.484Z,5.70
2022-12-03T01:44:35.530Z,5.69
2022-12-03T01:47:07.520Z,5.70
2022-12-03T01:49:42.853Z,5.66
2022-12-03T01:52:13.553Z,5.65
2022-12-03T01:54:47.577Z,5.68
2022-12-03T01:59:59.992Z,5.65
2022-12-03T02:02:30.211Z,5.66
2022-12-03T02:04:57.727Z,5.64
2022-12-03T02:10:02.721Z,5.65
2022-12-03T02:12:41.361Z,5.65
2022-12-03T02:15:09.327Z,5.65
2022-12-03T02:17:36.183Z,5.66
2022-12-03T02:20:05.480Z,5.66
2022-12-03T02:25:41.430Z,5.66
2022-12-03T02:28:09.687Z,5.63
2022-12-03T02:30:37.118Z,5.64
2022-12-03T02:33:04.139Z,5.63
2022-12-03T02:35:33.496Z,5.62
2022-12-03T02:38:06.442Z,5.62
2022-12-03T02:40:34.318Z,5.62
2022-12-03T02:43:03.835Z,5.61
2022-12-03T02:45:34.435Z,5.62
2022-12-03T02:48:05.514Z,5.59
2022-12-03T02:50:39.519Z,5.54
2022-12-03T02:53:11.861Z,5.50
2022-12-03T02:55:39.195Z,5.42
2022-12-03T02:58:06.695Z,5.37
2022-12-03T03:00:35.730Z,5.32
2022-12-03T03:03:04.535Z,5.28
2022-12-03T03:05:31.496Z,5.21
2022-12-03T03:07:59.466Z,5.16
2022-12-03T03:10:27.431Z,5.09
2022-12-03T03:12:55.639Z,5.04
2022-12-03T03:15:23.774Z,4.99
2022-12-03T03:17:50.665Z,4.95
2022-12-03T03:20:18.632Z,4.93
2022-12-03T03:22:45.424Z,4.92
2022-12-03T03:25:17.441Z,4.93
2022-12-03T03:27:45.561Z,4.93
2022-12-03T03:30:13.472Z,4.94
2022-12-03T03:32:40.769Z,4.97
2022-12-03T03:35:09.285Z,4.99
2022-12-03T03:37:36.044Z,5.01
2022-12-03T03:40:02.631Z,5.03
2022-12-03T03:42:29.355Z,5.05
2022-12-03T03:44:56.155Z,5.07
2022-12-03T03:47:23.861Z,5.09
2022-12-03T03:49:50.921Z,5.08
2022-12-03T03:52:19.205Z,5.11
2022-12-03T03:54:46.321Z,5.11
2022-12-03T03:57:13.050Z,5.12
2022-12-03T03:59:39.649Z,5.13
2022-12-03T04:02:06.225Z,5.16
2022-12-03T04:04:36.696Z,5.18
2022-12-03T04:07:03.223Z,5.10
2022-12-03T04:09:29.752Z,5.17
2022-12-03T04:12:16.201Z,5.21
2022-12-03T04:14:42.725Z,5.21
2022-12-03T04:17:09.345Z,5.23
2022-12-03T04:19:35.884Z,5.21
2022-12-03T04:22:22.371Z,5.26
2022-12-03T04:24:49.165Z,5.27
2022-12-03T04:27:35.653Z,5.28
2022-12-03T04:30:02.167Z,5.27
2022-12-03T04:32:48.619Z,5.27
2022-12-03T04:35:35.279Z,5.28
2022-12-03T04:38:02.562Z,5.28
2022-12-03T04:40:49.019Z,5.28
2022-12-03T04:43:15.538Z,5.27
2022-12-03T04:45:42.140Z,5.26
2022-12-03T04:48:08.709Z,5.28
2022-12-03T04:50:35.270Z,5.27
2022-12-03T04:53:01.820Z,5.27
2022-12-03T04:55:28.374Z,5.28
2022-12-03T04:57:54.939Z,5.27
2022-12-03T05:00:21.687Z,5.26
2022-12-03T05:02:48.279Z,5.25
2022-12-03T05:05:15.001Z,5.26
2022-12-03T05:07:41.684Z,5.25
2022-12-03T05:10:08.854Z,5.25
2022-12-03T05:12:35.743Z,5.24
2022-12-03T05:15:03.515Z,5.23
2022-12-03T05:17:30.088Z,5.23
2022-12-03T05:20:16.547Z,5.23
2022-12-03T05:22:43.856Z,5.22
2022-12-03T05:25:10.568Z,5.21
2022-12-03T05:27:37.153Z,5.18
2022-12-03T05:30:04.114Z,5.19
2022-12-03T05:32:31.199Z,5.17
2022-12-03T05:34:57.770Z,5.13
2022-12-03T05:37:24.300Z,5.12
2022-12-03T05:39:50.817Z,5.10
2022-12-03T05:42:37.296Z,5.08
2022-12-03T05:45:04.158Z,5.04
2022-12-03T05:47:30.714Z,5.01
2022-12-03T05:49:57.267Z,5.00
2022-12-03T05:52:23.831Z,4.99
2022-12-03T05:54:50.477Z,4.99
2022-12-03T05:57:17.105Z,5.00
2022-12-03T05:59:43.633Z,4.99
2022-12-03T06:02:10.214Z,4.98
2022-12-03T06:04:36.760Z,4.98
2022-12-03T06:07:03.314Z,4.98
2022-12-03T06:09:29.874Z,4.98
2022-12-03T06:11:56.414Z,4.97
2022-12-03T06:14:22.987Z,4.95
2022-12-03T06:16:49.593Z,4.94
2022-12-03T06:19:16.125Z,4.89
2022-12-03T06:21:42.663Z,4.85
2022-12-03T06:24:09.275Z,4.82
2022-12-03T06:26:36.154Z,4.77
2022-12-03T06:29:02.746Z,4.72
2022-12-03T06:31:29.425Z,4.66
2022-12-03T06:33:56.031Z,4.62
2022-12-03T06:36:23.487Z,4.56
2022-12-03T06:38:50.182Z,4.52
2022-12-03T06:41:16.716Z,4.47
2022-12-03T06:43:43.266Z,4.42
2022-12-03T06:46:10.003Z,4.39
2022-12-03T06:48:36.568Z,4.34
2022-12-03T06:51:03.115Z,4.32
2022-12-03T06:53:29.858Z,4.27
2022-12-03T06:55:56.745Z,4.24
2022-12-03T06:58:23.303Z,4.24
2022-12-03T07:00:49.837Z,4.24
2022-12-03T07:03:16.473Z,4.23
2022-12-03T07:05:43.106Z,4.22
2022-12-03T07:08:09.735Z,4.21
2022-12-03T07:10:36.332Z,4.21
2022-12-03T07:13:02.921Z,4.20
2022-12-03T07:15:29.556Z,4.20
2022-12-03T07:17:56.096Z,4.21
2022-12-03T07:20:22.844Z,4.22
2022-12-03T07:22:49.394Z,4.24
2022-12-03T07:25:22.611Z,4.26
2022-12-03T07:27:49.898Z,4.31
2022-12-03T07:30:16.934Z,4.33
2022-12-03T07:32:43.504Z,4.35
2022-12-03T07:35:10.325Z,4.37
2022-12-03T07:37:37.079Z,4.37
2022-12-03T07:40:06.239Z,4.37
2022-12-03T07:42:32.866Z,4.40
2022-12-03T07:44:59.418Z,4.39
2022-12-03T07:47:26.481Z,4.40
2022-12-03T07:49:53.077Z,4.40
2022-12-03T07:52:19.633Z,4.40
2022-12-03T07:54:46.159Z,4.38
2022-12-03T07:57:13.736Z,4.35
2022-12-03T07:59:40.323Z,4.36
2022-12-03T08:02:06.900Z,4.37
2022-12-03T08:04:33.499Z,4.33
2022-12-03T08:07:00.029Z,4.32
2022-12-03T08:09:26.643Z,4.31
2022-12-03T08:11:53.837Z,4.31
2022-12-03T08:14:21.141Z,4.29
2022-12-03T08:16:48.536Z,4.30
2022-12-03T08:19:17.414Z,4.29
2022-12-03T08:21:44.113Z,4.31
2022-12-03T08:24:15.033Z,4.27
2022-12-03T08:26:44.308Z,4.29
2022-12-03T08:29:13.542Z,4.26
2022-12-03T08:31:40.359Z,4.27
2022-12-03T08:34:18.742Z,4.26
2022-12-03T08:36:46.714Z,4.34
2022-12-03T08:44:55.765Z,4.49
2022-12-03T08:47:24.432Z,4.53
2022-12-03T08:49:58.116Z,4.56
2022-12-03T08:52:31.823Z,4.57
2022-12-03T08:54:59.876Z,4.57
2022-12-03T08:57:30.552Z,4.59
2022-12-03T09:00:21.240Z,4.59
2022-12-03T09:02:51.394Z,4.59
2022-12-03T09:05:22.588Z,4.61
2022-12-03T09:07:49.425Z,4.62
2022-12-03T09:10:16.175Z,4.63
2022-12-03T09:12:42.761Z,4.65
2022-12-03T09:15:09.697Z,4.68
2022-12-03T09:17:36.291Z,4.72
2022-12-03T09:20:03.800Z,4.80
2022-12-03T09:22:30.352Z,4.86
2022-12-03T09:24:56.918Z,4.98
2022-12-03T09:27:23.586Z,5.06
2022-12-03T09:29:51.008Z,5.13
2022-12-03T09:32:18.834Z,5.21
2022-12-03T09:34:46.497Z,5.30
2022-12-03T09:37:13.115Z,6.24
2022-12-03T09:39:39.710Z,7.37
2022-12-03T09:42:06.304Z,8.16
2022-12-03T09:44:34.393Z,8.89
2022-12-03T09:47:01.989Z,9.63
2022-12-03T09:49:30.435Z,10.43
2022-12-03T09:51:58.373Z,11.19
2022-12-03T09:54:27.529Z,11.97
2022-12-03T09:56:55.792Z,12.63
2022-12-03T09:59:25.702Z,13.11
2022-12-03T10:01:53.463Z,13.11
2022-12-03T10:04:20.329Z,13.15
2022-12-03T10:06:47.853Z,13.47
2022-12-03T10:09:20.889Z,13.48
2022-12-03T10:11:47.660Z,13.60
2022-12-03T10:14:17.210Z,13.79
2022-12-03T10:16:44.005Z,14.28
2022-12-03T10:19:21.378Z,14.60
2022-12-03T10:21:48.124Z,15.02
2022-12-03T10:27:25.241Z,15.58
2022-12-03T10:29:57.397Z,15.53
2022-12-03T10:32:27.934Z,14.97
2022-12-03T10:35:09.517Z,14.23
2022-12-03T10:37:36.202Z,13.57
2022-12-03T10:40:09.126Z,13.00
2022-12-03T10:42:38.543Z,12.56
2022-12-03T10:51:07.064Z,11.72
2022-12-03T10:53:37.547Z,11.56
2022-12-03T10:56:07.480Z,11.38
2022-12-03T10:58:37.328Z,11.15
2022-12-03T11:01:13.763Z,10.91
2022-12-03T11:03:40.677Z,10.58
2022-12-03T11:06:14.994Z,10.38
2022-12-03T11:08:44.670Z,10.19
2022-12-03T11:11:29.105Z,9.86
2022-12-03T11:22:38.573Z,9.14
2022-12-03T11:31:40.890Z,8.65
2022-12-03T11:37:22.207Z,8.49
2022-12-03T11:42:41.110Z,8.34
2022-12-03T11:48:15.591Z,8.19
2022-12-03T11:53:34.051Z,7.98
2022-12-03T11:56:08.929Z,7.97
2022-12-03T11:58:38.366Z,7.90
2022-12-03T12:01:07.449Z,7.87
2022-12-03T12:03:36.930Z,7.89
2022-12-03T12:08:58.766Z,7.76
2022-12-03T12:14:26.435Z,7.71
2022-12-03T12:16:55.269Z,7.68
2022-12-03T12:19:40.103Z,7.61
2022-12-03T12:22:17.174Z,7.57
2022-12-03T12:24:47.172Z,7.59
2022-12-03T12:35:47.421Z,7.65
2022-12-03T12:38:17.320Z,7.64
2022-12-03T12:40:46.901Z,7.64
2022-12-03T12:46:45.940Z,7.64
2022-12-03T12:49:01.391Z,7.65
2022-12-03T12:51:27.989Z,7.67
2022-12-03T12:53:54.832Z,7.65
2022-12-03T12:59:15.600Z,7.64
2022-12-03T13:01:44.087Z,7.63
2022-12-03T13:04:13.137Z,7.57
2022-12-03T13:06:40.222Z,7.58
2022-12-03T13:09:24.718Z,7.58
2022-12-03T13:11:55.780Z,7.62
2022-12-03T13:14:25.598Z,7.64
2022-12-03T13:16:54.667Z,7.66
2022-12-03T13:22:16.180Z,7.68
2022-12-03T13:24:45.581Z,7.67
2022-12-03T13:30:16.583Z,7.59
2022-12-03T13:32:44.077Z,7.56
2022-12-03T13:38:00.603Z,7.60
2022-12-03T13:40:31.460Z,7.63
2022-12-03T13:42:58.406Z,7.64
2022-12-03T13:48:23.876Z,7.63
2022-12-03T13:50:52.432Z,7.56
2022-12-03T13:56:30.406Z,7.52
2022-12-03T13:59:00.113Z,7.51
2022-12-03T14:01:28.162Z,7.45
2022-12-03T14:03:54.931Z,7.49
2022-12-03T14:06:21.601Z,7.54
2022-12-03T14:08:48.165Z,7.58
2022-12-03T14:11:34.712Z,7.57
2022-12-03T14:14:01.413Z,7.66
2022-12-03T14:16:28.039Z,7.72
2022-12-03T14:18:54.726Z,7.70
2022-12-03T14:21:21.369Z,7.65
2022-12-03T14:23:47.932Z,7.69
2022-12-03T14:26:14.517Z,7.68
2022-12-03T14:28:41.064Z,7.64
2022-12-03T14:31:08.031Z,7.62
2022-12-03T14:33:34.610Z,7.60
2022-12-03T14:36:01.186Z,7.57
2022-12-03T14:38:27.796Z,7.57
2022-12-03T14:40:54.323Z,7.57
2022-12-03T14:43:20.874Z,7.52
2022-12-03T14:45:47.455Z,7.51
2022-12-03T14:48:13.987Z,7.45
2022-12-03T14:50:40.572Z,7.46
2022-12-03T14:53:07.109Z,7.39
2022-12-03T14:55:33.687Z,7.39
2022-12-03T14:58:00.228Z,7.38
2022-12-03T15:00:26.774Z,7.38
2022-12-03T15:02:53.388Z,7.40
2022-12-03T15:05:24.918Z,7.41
2022-12-03T15:07:55.028Z,7.40
2022-12-03T15:10:21.646Z,7.35
2022-12-03T15:12:48.233Z,7.34
2022-12-03T15:15:14.843Z,7.33
2022-12-03T15:17:41.890Z,7.32
2022-12-03T15:20:08.948Z,7.28
2022-12-03T15:22:35.501Z,7.23
2022-12-03T15:25:03.431Z,7.22
2022-12-03T15:27:30.011Z,7.20
2022-12-03T15:29:56.768Z,7.13
2022-12-03T15:32:23.488Z,7.06
2022-12-03T15:34:51.369Z,7.10
2022-12-03T15:37:18.066Z,7.09
2022-12-03T15:39:48.339Z,7.07
2022-12-03T15:42:15.515Z,7.03
2022-12-03T15:44:42.094Z,6.96
2022-12-03T15:47:08.678Z,6.98
2022-12-03T15:49:35.252Z,6.97
2022-12-03T15:52:01.801Z,6.95
2022-12-03T15:54:28.359Z,6.90
2022-12-03T15:56:57.384Z,6.87
2022-12-03T15:59:24.534Z,6.84
2022-12-03T16:01:51.194Z,6.79
2022-12-03T16:04:17.798Z,6.76
2022-12-03T16:06:44.329Z,6.75
2022-12-03T16:09:10.897Z,6.72
2022-12-03T16:11:37.443Z,6.71
2022-12-03T16:14:03.977Z,6.68
2022-12-03T16:16:30.589Z,6.69
2022-12-03T16:18:57.231Z,6.68
2022-12-03T16:21:27.081Z,6.68
2022-12-03T16:23:54.289Z,6.65
2022-12-03T16:26:20.901Z,6.61
2022-12-03T16:28:47.430Z,6.59
2022-12-03T16:31:14.202Z,6.59
2022-12-03T16:33:40.842Z,6.56
2022-12-03T16:36:07.764Z,6.56
2022-12-03T16:38:35.344Z,6.54
2022-12-03T16:41:02.238Z,6.53
2022-12-03T16:43:28.907Z,6.50
2022-12-03T16:48:50.116Z,6.52
2022-12-03T16:51:16.813Z,6.50
2022-12-03T16:53:43.411Z,6.45
2022-12-03T16:56:10.062Z,6.42
2022-12-03T16:58:36.719Z,6.42
2022-12-03T17:01:03.779Z,6.42
2022-12-03T17:03:33.838Z,6.42
2022-12-03T17:06:01.292Z,6.40
2022-12-03T17:08:28.184Z,6.39
2022-12-03T17:10:54.780Z,6.36
2022-12-03T17:13:23.194Z,6.34
2022-12-03T17:15:50.511Z,6.33
2022-12-03T17:18:17.148Z,6.26
2022-12-03T17:20:43.719Z,6.19
2022-12-03T17:23:10.416Z,6.12
2022-12-03T17:25:37.086Z,6.08
2022-12-03T17:28:03.709Z,6.05
2022-12-03T17:30:30.262Z,6.02
2022-12-03T17:32:56.818Z,6.01
2022-12-03T17:35:23.472Z,5.98
2022-12-03T17:37:50.028Z,5.94
2022-12-03T17:40:17.392Z,5.91
2022-12-03T17:42:43.998Z,5.85
2022-12-03T17:45:11.160Z,5.82
2022-12-03T17:47:37.839Z,5.75
2022-12-03T17:50:05.053Z,5.72
2022-12-03T17:52:31.622Z,5.66
2022-12-03T17:55:23.622Z,5.61
2022-12-03T17:57:44.775Z,5.52
2022-12-03T18:00:11.871Z,5.49
2022-12-03T18:02:38.553Z,5.45
2022-12-03T18:05:05.420Z,5.43
2022-12-03T18:07:32.244Z,5.38
2022-12-03T18:09:58.919Z,5.32
2022-12-03T18:12:25.628Z,5.28
2022-12-03T18:14:52.197Z,5.23
2022-12-03T18:17:18.747Z,5.20
2022-12-03T18:19:45.300Z,5.13
2022-12-03T18:22:12.717Z,5.09
2022-12-03T18:24:39.392Z,5.06
2022-12-03T18:27:06.125Z,5.02
2022-12-03T18:29:32.695Z,4.98
2022-12-03T18:31:59.316Z,4.95
2022-12-03T18:34:25.922Z,4.91
2022-12-03T18:36:52.531Z,4.87
2022-12-03T18:39:25.511Z,4.83
2022-12-03T18:41:53.085Z,4.79
2022-12-03T18:44:20.000Z,4.76
2022-12-03T18:46:54.656Z,4.72
2022-12-03T18:49:21.914Z,4.69
2022-12-03T18:51:48.956Z,4.65
2022-12-03T18:54:17.215Z,4.62
2022-12-03T18:56:43.832Z,4.57
2022-12-03T18:59:11.266Z,4.56
2022-12-03T19:01:37.925Z,4.55
2022-12-03T19:04:04.667Z,4.53
2022-12-03T19:06:31.272Z,4.52
2022-12-03T19:08:58.002Z,4.48
2022-12-03T19:11:24.751Z,4.45
2022-12-03T19:13:51.900Z,4.42
2022-12-03T19:16:21.468Z,4.39
2022-12-03T19:18:48.410Z,4.35
2022-12-03T19:21:16.425Z,4.33
2022-12-03T19:24:04.165Z,4.30
2022-12-03T19:26:30.065Z,4.27
2022-12-03T19:28:56.694Z,4.24
2022-12-03T19:31:23.369Z,4.21
2022-12-03T19:33:50.789Z,4.18
2022-12-03T19:38:59.014Z,4.15
2022-12-03T19:41:27.454Z,4.14
2022-12-03T19:43:55.710Z,4.15
2022-12-03T19:46:24.374Z,4.15
2022-12-03T19:48:51.812Z,4.17
2022-12-03T19:51:34.165Z,4.17
2022-12-03T19:54:02.709Z,4.18
2022-12-03T19:56:30.480Z,4.16
2022-12-03T19:58:57.220Z,4.16
2022-12-03T20:01:26.518Z,4.14
2022-12-03T20:03:55.229Z,4.14
2022-12-03T20:06:25.219Z,4.14
2022-12-03T20:08:57.148Z,4.14
2022-12-03T20:11:26.519Z,4.16
2022-12-03T20:13:56.384Z,4.19
2022-12-03T20:16:24.434Z,4.20
2022-12-03T20:18:55.318Z,4.19
2022-12-03T20:21:21.880Z,4.16
2022-12-03T20:23:48.477Z,4.17
2022-12-03T20:26:18.350Z,4.20
2022-12-03T20:28:45.415Z,4.23
2022-12-03T20:31:15.023Z,4.23
2022-12-03T20:33:43.883Z,4.26
2022-12-03T20:36:12.634Z,4.27
2022-12-03T20:38:39.196Z,4.28
2022-12-03T20:41:15.778Z,4.27
2022-12-03T20:43:42.538Z,4.25
2022-12-03T20:46:29.738Z,4.19
2022-12-03T20:48:57.599Z,4.19
2022-12-03T20:51:27.215Z,4.18
2022-12-03T20:53:54.310Z,4.17
2022-12-03T20:56:24.672Z,4.20
2022-12-03T20:58:51.282Z,4.20
2022-12-03T21:01:20.929Z,4.22
2022-12-03T21:03:49.035Z,4.23
2022-12-03T21:06:16.578Z,4.25
2022-12-03T21:08:43.739Z,4.27
2022-12-03T21:11:13.230Z,4.28
2022-12-03T21:13:44.037Z,4.30
2022-12-03T21:16:14.388Z,4.31
2022-12-03T21:18:41.471Z,4.34
2022-12-03T21:21:09.056Z,4.34
2022-12-03T21:23:35.688Z,4.34
2022-12-03T21:26:08.287Z,4.34
2022-12-03T21:28:35.167Z,4.34
2022-12-03T21:31:04.990Z,4.34
2022-12-03T21:33:32.465Z,4.33
2022-12-03T21:35:59.889Z,4.31
2022-12-03T21:38:28.788Z,4.31
2022-12-03T21:40:55.891Z,4.31
2022-12-03T21:43:22.984Z,4.30
2022-12-03T21:45:50.019Z,4.30
2022-12-03T21:48:17.265Z,4.31
2022-12-03T21:50:44.577Z,4.29
2022-12-03T21:53:11.872Z,4.32
2022-12-03T21:55:40.677Z,4.31
2022-12-03T21:58:08.649Z,4.31
2022-12-03T22:00:35.799Z,4.31
2022-12-03T22:03:02.502Z,4.32
2022-12-03T22:05:29.147Z,4.31
2022-12-03T22:07:55.816Z,4.31
2022-12-03T22:10:22.523Z,4.28
2022-12-03T22:12:49.072Z,4.29
2022-12-03T22:15:19.230Z,4.26
2022-12-03T22:17:46.274Z,4.24
2022-12-03T22:20:13.421Z,4.23
2022-12-03T22:22:40.183Z,4.22
2022-12-03T22:25:07.347Z,4.22
2022-12-03T22:27:33.904Z,4.20
2022-12-03T22:30:00.442Z,4.23
2022-12-03T22:32:27.319Z,4.24
2022-12-03T22:34:53.875Z,4.26
2022-12-03T22:37:20.503Z,4.28
2022-12-03T22:39:47.046Z,4.30
2022-12-03T22:42:13.775Z,4.33
2022-12-03T22:44:40.369Z,4.36
2022-12-03T22:47:06.949Z,4.39
2022-12-03T22:49:33.522Z,4.39
2022-12-03T22:52:00.071Z,4.40
2022-12-03T22:54:26.635Z,4.36
2022-12-03T22:56:53.143Z,4.37
2022-12-03T22:59:19.792Z,4.37
2022-12-03T23:01:46.374Z,4.39
2022-12-03T23:04:13.067Z,4.36
2022-12-03T23:06:40.192Z,4.34
2022-12-03T23:09:08.140Z,4.34
2022-12-03T23:11:34.970Z,4.31
2022-12-03T23:14:02.050Z,4.29
2022-12-03T23:16:31.829Z,4.26
2022-12-03T23:18:59.956Z,4.23
2022-12-03T23:21:30.168Z,4.19
2022-12-03T23:23:59.593Z,4.19
2022-12-03T23:26:27.094Z,4.15
2022-12-03T23:28:54.075Z,4.11
2022-12-03T23:34:01.094Z,4.06
2022-12-03T23:36:29.854Z,4.03
2022-12-03T23:38:57.353Z,4.02
2022-12-03T23:41:25.141Z,3.98
2022-12-03T23:43:51.901Z,3.97
2022-12-03T23:46:22.411Z,3.96
2022-12-03T23:48:49.200Z,3.95
2022-12-03T23:51:19.045Z,3.97
2022-12-03T23:53:46.478Z,3.97
2022-12-03T23:56:16.284Z,4.00
2022-12-03T23:58:43.860Z,4.01
